Time;durP1;ratioP1;P1;durP2;ratioP2;P2;SDS_P1;SDS_P2;PMS_P1;PMS_P2;Temp;Humidity;BMP_temperature;BMP_pressure;BME280_temperature;BME280_humidity;BME280_pressure;Samples;Min_cycle;Max_cycle;Signal;HPM_P1;HPM_P2
2022/12/16 00:01:15;;;;;;;0.10;0.10;;;;;;;-3.58;83.98;100224.59;6179450;23;20453;-75
2022/12/16 00:03:42;;;;;;;0.10;0.10;;;;;;;-3.60;83.95;100223.94;6205452;22;19997;-75
2022/12/16 00:06:11;;;;;;;0.00;0.00;;;;;;;-3.66;83.62;100208.59;6204665;23;20000;-74
2022/12/16 00:08:40;;;;;;;0.10;0.10;;;;;;;-3.55;83.99;100226.91;6208067;23;20028;-73
2022/12/16 00:11:08;;;;;;;0.00;0.00;;;;;;;-3.51;84.04;100228.22;6203226;23;20000;-73
2022/12/16 00:13:39;;;;;;;0.00;0.00;;;;;;;-3.58;84.40;100205.88;6206865;23;20000;-73
2022/12/16 00:16:14;;;;;;;0.00;0.00;;;;;;;-3.50;84.54;100219.19;6182174;23;20031;-76
2022/12/16 00:18:43;;;;;;;0.00;0.00;;;;;;;-3.51;84.60;100222.84;6182412;22;20008;-75
2022/12/16 00:21:09;;;;;;;0.03;0.03;;;;;;;-3.55;84.66;100197.50;6184221;22;20433;-76
2022/12/16 00:23:35;;;;;;;0.10;0.10;;;;;;;-3.42;84.96;100215.59;6153162;23;20013;-76
2022/12/16 00:26:01;;;;;;;0.10;0.10;;;;;;;-3.37;84.85;100218.59;6181755;22;20116;-76
2022/12/16 00:28:27;;;;;;;0.00;0.00;;;;;;;-3.39;84.46;100221.44;6150307;22;20011;-76
2022/12/16 00:30:54;;;;;;;0.10;0.10;;;;;;;-3.36;84.79;100226.44;6153024;23;20096;-76
2022/12/16 00:33:21;;;;;;;0.00;0.00;;;;;;;-3.40;85.14;100224.28;6146906;23;20099;-74
2022/12/16 00:35:47;;;;;;;0.00;0.00;;;;;;;-3.50;84.39;100211.16;6199020;22;20357;-74
2022/12/16 00:38:14;;;;;;;0.00;0.00;;;;;;;-3.37;84.77;100234.63;6153818;23;20013;-75
2022/12/16 00:40:39;;;;;;;0.00;0.00;;;;;;;-3.38;85.43;100227.63;6173761;23;20005;-77
2022/12/16 00:43:04;;;;;;;0.00;0.00;;;;;;;-3.38;85.29;100228.44;6205664;23;20441;-77
2022/12/16 00:45:30;;;;;;;0.08;0.08;;;;;;;-3.45;85.26;100222.13;6173202;22;20005;-76
2022/12/16 00:47:56;;;;;;;0.00;0.00;;;;;;;-3.44;85.26;100223.81;6203749;23;20039;-75
2022/12/16 00:50:21;;;;;;;0.00;0.00;;;;;;;-3.53;85.41;100215.03;6125304;23;20638;-76
2022/12/16 00:52:47;;;;;;;0.00;0.00;;;;;;;-3.50;85.33;100219.19;6153118;22;20024;-76
2022/12/16 00:55:14;;;;;;;0.00;0.00;;;;;;;-3.48;85.45;100222.50;6153121;23;20016;-77
2022/12/16 00:57:40;;;;;;;0.00;0.00;;;;;;;-3.54;85.27;100217.88;6176690;22;20636;-76
2022/12/16 01:00:08;;;;;;;0.10;0.10;;;;;;;-3.52;85.59;100231.88;6205675;22;20005;-76
2022/12/16 01:02:33;;;;;;;0.00;0.00;;;;;;;-3.55;85.61;100226.91;6200111;22;20097;-76
2022/12/16 01:04:59;;;;;;;0.00;0.00;;;;;;;-3.56;85.37;100230.59;6179852;23;20005;-75
2022/12/16 01:07:24;;;;;;;0.10;0.10;;;;;;;-3.59;85.90;100221.09;6155548;23;20370;-77
2022/12/16 01:09:49;;;;;;;0.00;0.00;;;;;;;-3.52;85.81;100231.88;6149516;22;20004;-76
2022/12/16 01:12:15;;;;;;;0.00;0.00;;;;;;;-3.59;85.87;100221.09;6178938;22;20065;-76
2022/12/16 01:14:40;;;;;;;0.10;0.10;;;;;;;-3.52;85.79;100242.56;6175967;22;20009;-74
2022/12/16 01:17:06;;;;;;;0.00;0.00;;;;;;;-3.61;85.73;100228.44;6179080;23;20032;-76
2022/12/16 01:19:31;;;;;;;0.00;0.00;;;;;;;-3.55;85.50;100240.25;6179418;23;20028;-75
2022/12/16 01:21:57;;;;;;;0.10;0.10;;;;;;;-3.50;86.23;100245.91;6203279;23;20008;-74
2022/12/16 01:24:22;;;;;;;0.00;0.00;;;;;;;-3.53;85.77;100240.94;6178658;23;20061;-76
2022/12/16 01:26:48;;;;;;;0.00;0.00;;;;;;;-3.52;86.37;100253.28;6150937;23;20009;-75
2022/12/16 01:29:13;;;;;;;0.10;0.10;;;;;;;-3.53;86.14;100256.97;6130861;23;20012;-76
2022/12/16 01:31:39;;;;;;;0.10;0.10;;;;;;;-3.56;86.33;100265.34;6174570;23;20091;-76
2022/12/16 01:34:04;;;;;;;0.10;0.10;;;;;;;-3.56;86.05;100273.38;6178564;22;20007;-75
2022/12/16 01:36:30;;;;;;;0.00;0.00;;;;;;;-3.66;86.61;100251.34;6153407;23;20159;-76
2022/12/16 01:38:55;;;;;;;0.10;0.10;;;;;;;-3.50;86.88;100280.69;6174198;23;20005;-75
2022/12/16 01:41:20;;;;;;;0.10;0.10;;;;;;;-3.57;86.43;100261.00;6131102;23;20331;-76
2022/12/16 01:43:46;;;;;;;0.10;0.10;;;;;;;-3.56;86.61;100262.69;6174679;23;20013;-76
2022/12/16 01:46:11;;;;;;;0.10;0.10;;;;;;;-3.46;86.39;100278.47;6155546;23;20384;-75
2022/12/16 01:48:59;;;;;;;0.10;0.10;;;;;;;-3.46;86.47;100290.00;6178120;22;20008;-77
2022/12/16 01:51:40;;;;;;;0.00;0.00;;;;;;;-3.51;86.71;100279.81;6208730;22;20008;-77
2022/12/16 01:54:05;;;;;;;0.10;0.10;;;;;;;-3.40;87.19;100300.00;6176303;22;20016;-76
2022/12/16 01:56:33;;;;;;;0.10;0.10;;;;;;;-3.34;86.60;100296.59;6181156;23;20012;-77
2022/12/16 01:59:00;;;;;;;0.00;0.00;;;;;;;-3.34;87.14;100301.13;6165700;23;20001;-77
2022/12/16 02:01:26;;;;;;;0.10;0.10;;;;;;;-3.31;87.32;100308.78;6178675;22;20023;-76
2022/12/16 02:03:53;;;;;;;0.00;0.00;;;;;;;-3.25;87.25;100301.91;6151609;23;19993;-76
2022/12/16 02:06:18;;;;;;;0.00;0.00;;;;;;;-3.33;86.60;100298.28;6205636;23;20012;-76
2022/12/16 02:08:44;;;;;;;0.00;0.00;;;;;;;-3.27;87.33;100314.59;6182780;23;20008;-77
2022/12/16 02:11:21;;;;;;;0.05;0.05;;;;;;;-3.21;87.00;100311.22;6175672;23;20028;-77
2022/12/16 02:14:27;;;;;;;0.00;0.00;;;;;;;-3.20;87.06;100315.56;6181066;23;20005;-76
2022/12/16 02:17:14;;;;;;;0.10;0.10;;;;;;;-3.31;86.67;100307.94;6177948;23;19989;-76
2022/12/16 02:19:49;;;;;;;0.00;0.00;;;;;;;-3.26;87.73;100321.63;6178225;23;20013;-76
2022/12/16 02:22:37;;;;;;;0.05;0.05;;;;;;;-3.27;87.25;100325.28;6179680;22;20312;-75
2022/12/16 02:25:40;;;;;;;0.10;0.10;;;;;;;-3.33;87.40;100324.16;6176634;23;20008;-77
2022/12/16 02:28:33;;;;;;;0.00;0.00;;;;;;;-3.30;87.88;100331.00;6203520;23;20004;-76
2022/12/16 02:31:16;;;;;;;0.00;0.00;;;;;;;-3.33;87.42;100327.69;6206980;23;19996;-76
2022/12/16 02:33:58;;;;;;;0.10;0.10;;;;;;;-3.27;87.44;100328.81;6177565;23;20005;-76
2022/12/16 02:36:31;;;;;;;0.00;0.00;;;;;;;-3.28;88.28;100324.47;6180235;23;20086;-77
2022/12/16 02:39:11;;;;;;;0.10;0.10;;;;;;;-3.29;87.98;100327.31;6204173;23;20008;-77
2022/12/16 02:41:50;;;;;;;0.10;0.10;;;;;;;-3.23;87.83;100338.13;6181528;23;20009;-76
2022/12/16 02:44:17;;;;;;;0.10;0.10;;;;;;;-3.25;87.61;100340.16;6180278;23;20000;-76
2022/12/16 02:46:51;;;;;;;0.00;0.00;;;;;;;-3.28;87.48;100334.34;6180631;22;20062;-77
2022/12/16 02:49:17;;;;;;;;;;;;;;;-3.31;88.02;100335.53;6179859;22;19992;-76
2022/12/16 02:51:43;;;;;;;0.10;0.10;;;;;;;-3.38;87.74;100330.03;6179332;23;19958;-76
2022/12/16 02:54:10;;;;;;;0.00;0.00;;;;;;;-3.37;87.94;100339.75;6152777;23;20093;-78
2022/12/16 02:56:59;;;;;;;0.10;0.10;;;;;;;-3.38;88.47;100340.75;6155655;23;20034;-77
2022/12/16 02:59:30;;;;;;;0.10;0.10;;;;;;;-3.39;87.84;100349.78;6181662;22;20005;-77
2022/12/16 03:02:21;;;;;;;0.00;0.00;;;;;;;-3.43;87.95;100348.47;6179364;23;20000;-76
2022/12/16 03:04:58;;;;;;;0.10;0.10;;;;;;;-3.51;87.60;100338.63;6206233;23;20001;-77
2022/12/16 03:07:28;;;;;;;0.10;0.10;;;;;;;-3.56;88.46;100337.53;6207079;23;20008;-77
2022/12/16 03:09:55;;;;;;;0.10;0.10;;;;;;;-3.57;88.58;100338.53;6174909;22;20062;-76
2022/12/16 03:12:22;;;;;;;0.00;0.00;;;;;;;-3.61;88.05;100339.88;6181027;23;19992;-76
2022/12/16 03:14:50;;;;;;;0.10;0.10;;;;;;;-3.63;88.62;100344.59;6176227;23;20587;-77
2022/12/16 03:17:17;;;;;;;0.10;0.10;;;;;;;-3.72;88.52;100339.28;6180495;23;20008;-77
2022/12/16 03:19:48;;;;;;;0.10;0.10;;;;;;;-3.76;88.38;100343.28;6150402;23;20423;-75
2022/12/16 03:22:19;;;;;;;0.00;0.00;;;;;;;-3.72;88.95;100347.28;6206627;23;20062;-76
2022/12/16 03:24:46;;;;;;;0.00;0.00;;;;;;;-3.80;88.42;100341.16;6203244;23;20007;-77
2022/12/16 03:27:20;;;;;;;0.00;0.00;;;;;;;-3.79;88.58;100343.66;6155623;23;20019;-75
2022/12/16 03:29:51;;;;;;;;;;;;;;;-3.78;88.94;100348.00;6179835;22;20388;-77
2022/12/16 03:32:27;;;;;;;0.00;0.00;;;;;;;-3.87;88.77;100341.00;6180104;23;19908;-79
2022/12/16 03:34:58;;;;;;;0.00;0.00;;;;;;;-3.88;88.95;100350.88;6177002;23;20004;-76
2022/12/16 03:37:32;;;;;;;0.00;0.00;;;;;;;-3.95;89.21;100338.38;6179559;23;20005;-76
2022/12/16 03:40:02;;;;;;;0.00;0.00;;;;;;;-3.95;88.83;100338.38;6204964;23;20126;-76
2022/12/16 03:42:28;;;;;;;0.00;0.00;;;;;;;-3.95;89.15;100343.72;6178875;23;20433;-76
2022/12/16 03:44:54;;;;;;;0.10;0.10;;;;;;;-4.03;89.54;100334.72;6156394;23;20013;-77
2022/12/16 03:47:19;;;;;;;0.00;0.00;;;;;;;-4.06;89.23;100329.75;6203309;22;20411;-77
2022/12/16 03:49:45;;;;;;;0.10;0.10;;;;;;;-4.06;89.61;100327.06;6180447;22;20005;-78
2022/12/16 03:52:10;;;;;;;0.10;0.10;;;;;;;-4.05;89.90;100328.72;6174033;22;20047;-77
2022/12/16 03:54:38;;;;;;;0.10;0.10;;;;;;;-4.04;89.63;100326.91;6280581;22;20005;-77
2022/12/16 03:57:05;;;;;;;0.10;0.10;;;;;;;-4.11;90.00;100323.25;6254782;22;20001;-77
2022/12/16 03:59:31;;;;;;;0.10;0.10;;;;;;;-4.06;89.88;100340.41;6257693;22;20009;-76
2022/12/16 04:01:56;;;;;;;0.10;0.10;;;;;;;-4.04;89.97;100351.75;6251383;22;20017;-76
2022/12/16 04:04:22;;;;;;;0.00;0.00;;;;;;;-4.07;89.95;100356.63;6280390;22;20443;-76
2022/12/16 04:07:18;;;;;;;0.08;0.08;;;;;;;-4.13;90.07;100347.44;6253868;22;20008;-76
2022/12/16 04:09:33;;;;;;;0.10;0.10;;;;;;;-4.08;89.92;100366.44;6172613;22;20459;-76
2022/12/16 04:25:48;;;;;;;0.10;0.10;;;;;;;-4.13;91.38;100375.97;6263442;22;20620;-75
2022/12/16 04:28:14;;;;;;;0.10;0.10;;;;;;;-4.19;90.84;100374.84;6174902;22;20006;-75
2022/12/16 04:30:39;;;;;;;0.00;0.00;;;;;;;-4.17;91.47;100378.19;6172640;22;20028;-75
